createdAt,value
2023-04-23T00:01:41.485Z,4.2
2023-04-23T00:03:56.253Z,4.22
2023-04-23T00:06:08.600Z,4.23
2023-04-23T00:08:19.821Z,4.22
2023-04-23T00:10:32.037Z,4.19
2023-04-23T00:12:43.922Z,4.18
2023-04-23T00:14:55.638Z,4.16
2023-04-23T00:17:06.560Z,4.14
2023-04-23T00:19:21.934Z,4.13
2023-04-23T00:21:33.033Z,4.15
2023-04-23T00:23:43.839Z,4.18
2023-04-23T00:25:55.095Z,4.19
2023-04-23T00:28:05.864Z,4.19
2023-04-23T00:30:16.089Z,4.19
2023-04-23T00:32:28.023Z,4.16
2023-04-23T00:34:39.929Z,4.12
2023-04-23T00:36:50.975Z,4.13
2023-04-23T00:39:02.341Z,4.09
2023-04-23T00:41:13.936Z,4.06
2023-04-23T00:43:25.640Z,4.06
2023-04-23T00:45:36.489Z,4.03
2023-04-23T00:47:48.672Z,4.02
2023-04-23T00:49:59.614Z,3.99
2023-04-23T00:52:10.640Z,3.96
2023-04-23T00:54:22.276Z,3.91
2023-04-23T00:56:34.441Z,3.89
2023-04-23T00:58:46.501Z,3.86
2023-04-23T01:00:57.866Z,3.84
2023-04-23T01:03:09.189Z,3.83
2023-04-23T01:05:20.376Z,3.81
2023-04-23T01:07:31.202Z,3.73
2023-04-23T01:09:42.062Z,3.79
2023-04-23T01:11:52.882Z,3.82
2023-04-23T01:14:04.682Z,3.78
2023-04-23T01:16:15.785Z,3.74
2023-04-23T01:18:27.120Z,3.66
2023-04-23T01:20:37.381Z,3.55
2023-04-23T01:22:48.309Z,3.53
2023-04-23T01:24:58.879Z,3.56
2023-04-23T01:27:09.739Z,3.59
2023-04-23T01:29:21.141Z,3.56
2023-04-23T01:31:31.622Z,3.5
2023-04-23T01:33:45.485Z,3.5
2023-04-23T01:35:58.921Z,3.47
2023-04-23T01:38:09.981Z,3.41
2023-04-23T01:40:21.406Z,3.35
2023-04-23T01:42:33.197Z,3.3
2023-04-23T01:44:44.677Z,3.3
2023-04-23T01:46:56.460Z,3.28
2023-04-23T01:49:10.977Z,3.33
2023-04-23T01:51:22.353Z,3.37
2023-04-23T01:53:34.357Z,3.44
2023-04-23T01:55:45.498Z,3.49
2023-04-23T01:57:56.615Z,3.51
2023-04-23T02:00:07.622Z,3.55
2023-04-23T02:02:20.712Z,3.55
2023-04-23T02:04:33.568Z,3.56
2023-04-23T02:06:45.301Z,3.55
2023-04-23T02:08:57.438Z,3.51
2023-04-23T02:11:09.841Z,3.47
2023-04-23T02:13:20.852Z,3.48
2023-04-23T02:15:32.422Z,3.54
2023-04-23T02:17:42.957Z,3.55
2023-04-23T02:19:54.840Z,3.49
2023-04-23T02:22:05.424Z,3.42
2023-04-23T02:24:17.862Z,3.35
2023-04-23T02:26:29.771Z,3.31
2023-04-23T02:28:43.241Z,3.29
2023-04-23T02:30:53.520Z,3.26
2023-04-23T02:33:04.802Z,3.25
2023-04-23T02:35:16.679Z,3.2
2023-04-23T02:37:27.579Z,3.16
2023-04-23T02:39:39.068Z,3.12
2023-04-23T02:41:50.078Z,3.08
2023-04-23T02:44:01.286Z,3.07
2023-04-23T02:46:11.497Z,3.14
2023-04-23T02:48:22.518Z,3.15
2023-04-23T02:50:32.998Z,3.14
2023-04-23T02:54:55.978Z,3.08
2023-04-23T02:57:07.606Z,3.02
2023-04-23T02:59:19.656Z,2.97
2023-04-23T03:01:30.997Z,2.91
2023-04-23T03:03:42.268Z,2.86
2023-04-23T03:05:54.319Z,2.82
2023-04-23T03:08:05.673Z,2.81
2023-04-23T03:10:17.528Z,2.81
2023-04-23T03:12:32.092Z,2.83
2023-04-23T03:14:43.360Z,2.89
2023-04-23T03:16:55.421Z,2.92
2023-04-23T03:19:08.459Z,2.98
2023-04-23T03:21:20.520Z,3
2023-04-23T03:23:32.056Z,2.99
2023-04-23T03:25:44.659Z,2.92
2023-04-23T03:27:55.677Z,2.83
2023-04-23T03:30:06.317Z,2.87
2023-04-23T03:32:17.255Z,2.88
2023-04-23T03:34:28.516Z,2.91
2023-04-23T03:36:39.873Z,2.94
2023-04-23T03:38:51.873Z,2.92
2023-04-23T03:41:04.602Z,2.95
2023-04-23T03:43:17.967Z,2.96
2023-04-23T03:45:31.676Z,2.96
2023-04-23T03:47:43.253Z,2.96
2023-04-23T03:49:58.561Z,2.99
2023-04-23T03:52:10.036Z,3.01
2023-04-23T03:54:21.201Z,3.03
2023-04-23T03:56:32.566Z,3.01
2023-04-23T03:58:44.958Z,3.01
2023-04-23T04:00:57.681Z,3.07
2023-04-23T04:03:09.168Z,3.13
2023-04-23T04:05:21.784Z,3.15
2023-04-23T04:07:34.118Z,3.12
2023-04-23T04:09:44.800Z,3.12
2023-04-23T04:11:59.180Z,3.15
2023-04-23T04:14:12.008Z,3.2
2023-04-23T04:16:23.911Z,3.26
2023-04-23T04:18:35.659Z,3.36
2023-04-23T04:20:46.682Z,3.44
2023-04-23T04:22:57.603Z,3.5
2023-04-23T04:25:09.278Z,3.54
2023-04-23T05:05:16.974Z,6.43
2023-04-23T05:47:00.683Z,12.26
2023-04-23T05:50:08.140Z,12.13
2023-04-23T05:52:22.439Z,12.31
2023-04-23T05:56:48.433Z,12.17
2023-04-23T05:59:14.372Z,12.06
2023-04-23T06:01:37.716Z,12.19
2023-04-23T06:03:52.605Z,12.14
2023-04-23T06:06:10.566Z,12.21
2023-04-23T06:08:36.073Z,12.28
2023-04-23T06:10:53.413Z,12.41
2023-04-23T06:13:05.640Z,12.37
2023-04-23T06:15:23.582Z,12.45
2023-04-23T06:17:44.554Z,12.43
2023-04-23T06:19:59.597Z,12.54
2023-04-23T06:22:16.100Z,12.7
2023-04-23T06:24:32.040Z,12.89
2023-04-23T06:26:43.220Z,13.05
2023-04-23T06:28:55.720Z,13.26
2023-04-23T06:31:08.166Z,13.4
2023-04-23T06:33:25.198Z,13.63
2023-04-23T06:35:36.572Z,13.74
2023-04-23T06:37:49.096Z,13.92
2023-04-23T06:40:06.598Z,14.1
2023-04-23T06:42:20.102Z,14.09
2023-04-23T06:44:40.019Z,14.27
2023-04-23T06:47:02.422Z,14.48
2023-04-23T06:49:14.894Z,14.71
2023-04-23T06:51:25.525Z,14.89
2023-04-23T06:53:40.946Z,15.06
2023-04-23T06:55:52.694Z,15.16
2023-04-23T06:58:07.739Z,15.21
2023-04-23T07:00:27.816Z,15.61
2023-04-23T07:02:41.643Z,15.85
2023-04-23T07:04:55.865Z,16.11
2023-04-23T07:07:11.040Z,16.31
2023-04-23T07:09:27.772Z,16.7
2023-04-23T07:11:45.659Z,17.15
2023-04-23T07:14:04.190Z,17.36
2023-04-23T07:16:27.701Z,17.12
2023-04-23T07:18:50.334Z,17.82
2023-04-23T07:21:14.580Z,18.21
2023-04-23T07:23:26.945Z,18.38
2023-04-23T07:25:39.353Z,17.98
2023-04-23T07:27:57.713Z,18.4
2023-04-23T07:30:18.099Z,18.69
2023-04-23T07:32:31.752Z,18.65
2023-04-23T07:34:49.639Z,19.48
2023-04-23T07:37:03.191Z,19.01
2023-04-23T07:39:16.397Z,18.88
2023-04-23T07:41:29.177Z,18.75
2023-04-23T07:43:43.701Z,19.5
2023-04-23T07:45:54.758Z,19.79
2023-04-23T07:48:09.638Z,19.72
2023-04-23T07:50:20.660Z,19.92
2023-04-23T07:52:34.019Z,20.26
2023-04-23T07:54:46.428Z,20.51
2023-04-23T07:56:57.756Z,20.35
2023-04-23T07:59:10.313Z,20.87
2023-04-23T08:01:24.056Z,20.21
2023-04-23T08:03:37.203Z,21.03
2023-04-23T08:05:50.781Z,21.55
2023-04-23T08:08:07.462Z,21.81
2023-04-23T08:10:23.802Z,21.37
2023-04-23T08:12:37.558Z,21.28
2023-04-23T08:14:50.597Z,20.93
2023-04-23T08:17:02.872Z,20.65
2023-04-23T08:19:14.247Z,20.66
2023-04-23T08:21:26.237Z,21.01
2023-04-23T08:23:38.732Z,21.68
2023-04-23T08:25:49.231Z,21.81
2023-04-23T08:28:00.132Z,21.32
2023-04-23T08:30:12.798Z,22.48
2023-04-23T08:32:26.759Z,21.94
2023-04-23T08:34:37.697Z,22.37
2023-04-23T08:36:49.878Z,22.74
2023-04-23T08:39:02.114Z,22.85
2023-04-23T08:41:15.891Z,22.57
2023-04-23T08:43:28.276Z,22.06
2023-04-23T08:45:39.946Z,21.74
2023-04-23T08:47:56.767Z,22.03
2023-04-23T08:52:38.072Z,22.26
2023-04-23T08:54:54.457Z,22.57
2023-04-23T08:57:08.553Z,23.15
2023-04-23T08:59:20.898Z,23.19
2023-04-23T09:01:33.931Z,23.39
2023-04-23T09:03:46.213Z,23.32
2023-04-23T09:05:58.275Z,23.64
2023-04-23T09:08:10.131Z,23.6
2023-04-23T09:10:21.553Z,24.11
2023-04-23T09:12:33.581Z,23.5
2023-04-23T09:14:45.203Z,23.08
2023-04-23T09:16:56.895Z,22.88
2023-04-23T09:19:07.933Z,23.07
2023-04-23T09:21:20.933Z,22.41
2023-04-23T09:23:33.675Z,22.61
2023-04-23T09:25:45.813Z,22.87
2023-04-23T09:27:56.991Z,22.76
2023-04-23T09:30:12.451Z,23.87
2023-04-23T09:32:26.399Z,22.82
2023-04-23T09:34:42.934Z,23.01
2023-04-23T09:36:56.322Z,23
2023-04-23T09:39:07.310Z,22.58
2023-04-23T09:41:20.874Z,23.3
2023-04-23T09:43:34.468Z,23.6
2023-04-23T09:45:48.507Z,23.58
2023-04-23T09:48:01.986Z,24.12
2023-04-23T09:50:16.418Z,23.82
2023-04-23T09:52:28.614Z,24.66
2023-04-23T09:54:44.229Z,24.48
2023-04-23T09:57:07.711Z,24.8
2023-04-23T09:59:29.289Z,24.39
2023-04-23T10:02:20.130Z,25.57
2023-04-23T10:04:34.336Z,24.46
2023-04-23T10:07:02.214Z,24.07
2023-04-23T10:09:30.973Z,23.5
2023-04-23T10:11:48.686Z,23.63
2023-04-23T10:14:01.472Z,24.01
2023-04-23T10:16:22.954Z,23.74
2023-04-23T10:18:58.728Z,23.71
2023-04-23T10:21:13.103Z,24.66
2023-04-23T10:23:28.831Z,24.02
2023-04-23T10:25:41.833Z,23.09
2023-04-23T10:27:54.136Z,23.6
2023-04-23T10:30:06.373Z,24.28
2023-04-23T10:32:17.855Z,24.2
2023-04-23T10:34:28.620Z,24.24
2023-04-23T10:38:58.205Z,25.09
2023-04-23T10:41:13.558Z,24.3
2023-04-23T10:43:30.771Z,25.62
2023-04-23T10:45:42.793Z,25.76
2023-04-23T10:47:54.792Z,25.49
2023-04-23T10:50:06.319Z,25.82
2023-04-23T10:52:22.302Z,25.86
2023-04-23T10:54:36.819Z,26.73
2023-04-23T10:56:51.812Z,24.91
2023-04-23T10:59:10.754Z,24.84
2023-04-23T11:01:24.910Z,24.87
2023-04-23T11:03:38.858Z,25.12
2023-04-23T11:05:56.020Z,25.41
2023-04-23T11:08:18.590Z,24.75
2023-04-23T11:10:37.394Z,24.81
2023-04-23T11:12:51.774Z,24.93
2023-04-23T11:15:03.482Z,24.47
2023-04-23T11:19:49.052Z,24.55
2023-04-23T11:22:04.136Z,24.29
2023-04-23T11:24:17.575Z,24.61
2023-04-23T11:26:38.263Z,25.97
2023-04-23T11:28:56.454Z,24.67
2023-04-23T11:31:09.831Z,24.4
2023-04-23T11:35:43.714Z,24.46
2023-04-23T11:38:03.158Z,24.52
2023-04-23T11:40:19.620Z,25.18
2023-04-23T11:42:34.154Z,25.08
2023-04-23T11:44:46.700Z,24.12
2023-04-23T11:46:58.567Z,24.67
2023-04-23T11:49:11.280Z,24.77
2023-04-23T11:51:26.407Z,25.94
2023-04-23T11:53:40.854Z,24.04
2023-04-23T11:55:52.742Z,23.43
2023-04-23T11:58:04.632Z,23.79
2023-04-23T12:00:15.961Z,24.62
2023-04-23T12:02:27.151Z,25.14
2023-04-23T12:04:50.612Z,23.91
2023-04-23T12:07:26.549Z,25.3
2023-04-23T12:09:43.153Z,25.19
2023-04-23T12:11:55.234Z,25.37
2023-04-23T12:14:07.016Z,24.92
2023-04-23T12:16:28.839Z,24.13
2023-04-23T12:18:40.951Z,24.72
2023-04-23T12:20:53.289Z,25.58
2023-04-23T12:23:07.231Z,26.14
2023-04-23T12:25:21.353Z,25.58
2023-04-23T12:27:45.012Z,26.74
2023-04-23T12:29:57.566Z,25.63
2023-04-23T12:32:11.239Z,25.58
2023-04-23T12:34:23.983Z,24.92
2023-04-23T12:36:39.878Z,25
2023-04-23T12:38:53.010Z,25.35
2023-04-23T12:41:06.709Z,25.83
2023-04-23T12:43:19.998Z,25.03
2023-04-23T12:45:31.096Z,24.33
2023-04-23T12:47:44.363Z,24.4
2023-04-23T12:49:58.936Z,25.16
2023-04-23T12:52:20.363Z,26.1
2023-04-23T12:54:37.768Z,25.56
2023-04-23T12:59:05.009Z,24.72
2023-04-23T13:01:15.454Z,25.6
2023-04-23T13:03:27.639Z,24.7
2023-04-23T13:08:10.612Z,23.57
2023-04-23T13:10:22.055Z,23.88
2023-04-23T13:12:38.613Z,25.29
2023-04-23T13:14:52.628Z,24.78
2023-04-23T13:17:07.695Z,24.59
2023-04-23T13:19:24.277Z,24.7
2023-04-23T13:21:35.552Z,24.69
2023-04-23T13:23:49.753Z,24.8
2023-04-23T13:26:03.650Z,24.67
2023-04-23T13:28:16.955Z,24.22
2023-04-23T13:30:30.747Z,24.28
2023-04-23T13:32:42.541Z,24.51
2023-04-23T13:34:58.190Z,24.37
2023-04-23T13:37:16.433Z,23.6
2023-04-23T13:39:28.814Z,23.02
2023-04-23T13:41:46.632Z,22.55
2023-04-23T13:44:25.127Z,22.49
2023-04-23T13:46:42.018Z,22.3
2023-04-23T13:48:57.468Z,22.47
2023-04-23T13:51:21.732Z,22.55
2023-04-23T13:53:46.098Z,22.48
2023-04-23T13:55:59.052Z,22.74
2023-04-23T13:58:12.184Z,22.81
2023-04-23T14:00:24.419Z,22.56
2023-04-23T14:02:40.992Z,22.78
2023-04-23T14:04:52.720Z,22.99
2023-04-23T14:07:06.339Z,23.46
2023-04-23T14:09:19.932Z,23.75
2023-04-23T14:11:33.158Z,23.87
2023-04-23T14:13:44.197Z,23.66
2023-04-23T14:15:55.389Z,24
2023-04-23T14:18:15.719Z,23.91
2023-04-23T14:20:29.417Z,23.66
2023-04-23T14:22:44.908Z,23.44
2023-04-23T14:24:59.694Z,22.82
2023-04-23T14:27:12.557Z,22.59
2023-04-23T14:29:24.121Z,22.5
2023-04-23T14:31:39.819Z,22.42
2023-04-23T14:33:54.569Z,22.11
2023-04-23T14:36:06.432Z,22.17
2023-04-23T14:38:18.856Z,22.19
2023-04-23T14:40:31.874Z,22.01
2023-04-23T14:45:28.577Z,21.98
2023-04-23T14:47:42.866Z,21.93
2023-04-23T14:49:57.100Z,21.87
2023-04-23T14:52:08.951Z,21.8
2023-04-23T14:54:22.553Z,21.72
2023-04-23T14:56:35.155Z,21.71
2023-04-23T14:58:50.553Z,21.84
2023-04-23T15:01:03.695Z,21.87
2023-04-23T15:03:17.567Z,21.87
2023-04-23T15:05:32.493Z,21.91
2023-04-23T15:07:45.130Z,21.89
2023-04-23T15:10:01.706Z,21.85
2023-04-23T15:12:15.909Z,21.88
2023-04-23T15:14:34.407Z,21.83
2023-04-23T15:16:49.649Z,21.82
2023-04-23T15:19:04.062Z,21.67
2023-04-23T15:21:17.311Z,21.58
2023-04-23T15:23:30.578Z,21.59
2023-04-23T15:25:47.211Z,21.55
2023-04-23T15:28:01.605Z,21.59
2023-04-23T15:30:16.258Z,21.63
2023-04-23T15:32:36.585Z,21.56
2023-04-23T15:34:49.277Z,21.5
2023-04-23T15:37:00.354Z,21.53
2023-04-23T15:39:12.250Z,21.65
2023-04-23T15:41:29.443Z,21.62
2023-04-23T15:43:50.062Z,21.62
2023-04-23T15:46:07.763Z,21.61
2023-04-23T15:48:22.518Z,21.55
2023-04-23T15:50:38.442Z,21.52
2023-04-23T15:52:55.478Z,21.44
2023-04-23T15:55:16.560Z,21.34
2023-04-23T15:57:32.049Z,21.26
2023-04-23T15:59:48.378Z,21.16
2023-04-23T16:02:03.583Z,21.08
2023-04-23T16:04:29.208Z,21.1
2023-04-23T16:06:52.112Z,21.13
2023-04-23T16:09:10.015Z,21.09
2023-04-23T16:11:27.391Z,21.24
2023-04-23T16:13:41.719Z,21.35
2023-04-23T16:15:56.241Z,21.29
2023-04-23T16:18:08.339Z,21.22
2023-04-23T16:20:26.162Z,21.03
2023-04-23T16:22:37.730Z,20.86
2023-04-23T16:24:54.117Z,20.77
2023-04-23T16:27:14.125Z,20.77
2023-04-23T16:29:25.881Z,20.73
2023-04-23T16:31:46.110Z,20.71
2023-04-23T16:34:09.014Z,20.61
2023-04-23T16:36:21.394Z,20.7
2023-04-23T16:38:34.985Z,20.68
2023-04-23T16:40:48.379Z,20.59
2023-04-23T16:43:04.037Z,20.52
2023-04-23T16:45:22.233Z,20.3
2023-04-23T16:47:34.458Z,20.24
2023-04-23T16:52:20.002Z,19.8
2023-04-23T16:54:32.976Z,19.8
2023-04-23T16:56:45.372Z,19.75
2023-04-23T16:59:01.395Z,19.54
2023-04-23T17:01:15.992Z,19.14
2023-04-23T17:03:31.096Z,18.77
2023-04-23T17:05:46.533Z,18.46
2023-04-23T17:08:00.814Z,18.19
2023-04-23T17:10:20.277Z,17.89
2023-04-23T17:12:34.597Z,17.66
2023-04-23T17:14:51.009Z,17.48
2023-04-23T17:17:05.859Z,17.26
2023-04-23T17:19:25.045Z,17.03
2023-04-23T17:21:37.235Z,16.74
2023-04-23T17:23:52.630Z,16.54
2023-04-23T17:26:06.495Z,16.33
2023-04-23T17:28:22.962Z,16.14
2023-04-23T17:30:36.457Z,15.91
2023-04-23T17:32:55.440Z,15.62
2023-04-23T17:35:11.150Z,15.39
2023-04-23T17:37:27.036Z,15.14
2023-04-23T17:39:48.377Z,14.93
2023-04-23T17:42:02.281Z,14.77
2023-04-23T17:44:19.147Z,14.55
2023-04-23T17:46:35.219Z,14.34
2023-04-23T17:48:51.356Z,14.15
2023-04-23T17:51:10.157Z,14.01
2023-04-23T17:53:25.096Z,13.85
2023-04-23T17:55:41.257Z,13.73
2023-04-23T17:57:54.213Z,13.58
2023-04-23T18:02:38.186Z,13.36
2023-04-23T18:04:56.915Z,13.27
2023-04-23T18:07:13.892Z,13.18
2023-04-23T18:09:29.033Z,13.09
2023-04-23T18:11:42.738Z,12.95
2023-04-23T18:14:00.009Z,12.88
2023-04-23T18:16:14.247Z,12.95
2023-04-23T18:20:52.144Z,12.77
2023-04-23T18:23:06.896Z,12.67
2023-04-23T18:25:22.116Z,12.56
2023-04-23T18:27:37.514Z,12.44
2023-04-23T18:29:52.136Z,12.34
2023-04-23T18:32:12.303Z,12.21
2023-04-23T18:34:47.602Z,12.07
2023-04-23T18:37:03.120Z,11.99
2023-04-23T18:39:18.435Z,11.94
2023-04-23T18:41:36.273Z,11.9
2023-04-23T18:43:52.325Z,11.86
2023-04-23T18:46:05.848Z,11.78
2023-04-23T18:48:21.239Z,11.68
2023-04-23T18:50:38.978Z,11.64
2023-04-23T18:52:51.136Z,11.61
2023-04-23T18:55:04.591Z,11.49
2023-04-23T18:57:18.432Z,11.43
2023-04-23T18:59:34.197Z,11.32
2023-04-23T19:01:51.249Z,11.31
2023-04-23T19:04:11.779Z,11.29
2023-04-23T19:06:28.261Z,11.25
2023-04-23T19:08:41.554Z,11.18
2023-04-23T19:10:54.179Z,11.18
2023-04-23T19:13:08.158Z,11.1
2023-04-23T19:15:22.081Z,11.1
2023-04-23T19:17:39.405Z,11.05
2023-04-23T19:19:53.497Z,11.04
2023-04-23T19:22:06.476Z,11.02
2023-04-23T19:24:21.390Z,10.95
2023-04-23T19:26:37.336Z,10.92
2023-04-23T19:28:51.738Z,10.9
2023-04-23T19:31:05.389Z,10.89
2023-04-23T19:33:30.836Z,10.89
2023-04-23T19:35:51.634Z,10.89
2023-04-23T19:38:06.314Z,10.86
2023-04-23T19:40:18.872Z,10.83
2023-04-23T19:42:38.838Z,10.8
2023-04-23T19:44:55.153Z,10.83
2023-04-23T19:47:09.382Z,10.81
2023-04-23T19:49:21.553Z,10.71
2023-04-23T19:53:52.082Z,10.65
2023-04-23T19:56:05.056Z,10.67
2023-04-23T19:58:19.274Z,10.69
2023-04-23T20:00:36.675Z,10.74
2023-04-23T20:02:54.219Z,10.7
2023-04-23T20:05:09.955Z,10.7
2023-04-23T20:07:31.572Z,10.73
2023-04-23T20:09:47.717Z,10.82
2023-04-23T20:12:01.662Z,10.83
2023-04-23T20:14:14.773Z,10.8
2023-04-23T20:16:28.294Z,10.76
2023-04-23T20:18:40.858Z,10.72
2023-04-23T20:20:53.581Z,10.67
2023-04-23T20:23:05.755Z,10.61
2023-04-23T20:25:24.201Z,10.62
2023-04-23T20:27:41.252Z,10.66
2023-04-23T20:29:53.196Z,10.69
2023-04-23T20:32:06.952Z,10.71
2023-04-23T20:34:19.814Z,10.78
2023-04-23T20:36:37.531Z,10.8
2023-04-23T20:38:50.954Z,10.8
2023-04-23T20:41:05.162Z,10.78
2023-04-23T20:43:18.416Z,10.72
2023-04-23T20:45:32.815Z,10.67
2023-04-23T20:47:46.535Z,10.59
2023-04-23T20:49:59.679Z,10.49
2023-04-23T20:52:12.359Z,10.5
2023-04-23T20:54:23.318Z,10.53
2023-04-23T20:56:39.197Z,10.49
2023-04-23T20:58:52.222Z,10.53
2023-04-23T21:01:06.135Z,10.49
2023-04-23T21:03:17.907Z,10.47
2023-04-23T21:05:35.664Z,10.47
2023-04-23T21:07:48.094Z,10.48
2023-04-23T21:10:03.380Z,10.58
2023-04-23T21:12:15.335Z,10.63
2023-04-23T21:14:28.381Z,10.64
2023-04-23T21:16:40.998Z,10.57
2023-04-23T21:18:56.881Z,10.51
2023-04-23T21:21:10.078Z,10.42
2023-04-23T21:23:21.980Z,10.41
2023-04-23T21:25:37.536Z,10.4
2023-04-23T21:27:48.904Z,10.35
2023-04-23T21:30:03.738Z,10.54
2023-04-23T21:32:18.870Z,10.91
2023-04-23T21:36:59.255Z,11.21
2023-04-23T21:39:14.539Z,11.22
2023-04-23T21:41:25.515Z,11.08
2023-04-23T21:43:39.315Z,11.1
2023-04-23T21:45:50.298Z,11.04
2023-04-23T21:48:01.437Z,10.87
2023-04-23T21:50:12.332Z,10.69
2023-04-23T21:52:25.979Z,10.55
2023-04-23T21:54:36.638Z,10.38
2023-04-23T21:56:47.405Z,10.21
2023-04-23T21:58:57.874Z,10.02
2023-04-23T22:01:08.862Z,9.86
2023-04-23T22:03:30.918Z,9.67
2023-04-23T22:05:52.177Z,9.57
2023-04-23T22:08:07.195Z,9.47
2023-04-23T22:10:19.096Z,9.36
2023-04-23T22:12:34.633Z,9.23
2023-04-23T22:14:50.295Z,9.12
2023-04-23T22:17:01.503Z,9.1
2023-04-23T22:19:13.874Z,9.04
2023-04-23T22:21:26.629Z,9.02
2023-04-23T22:23:37.771Z,9.05
2023-04-23T22:25:50.253Z,9.04
2023-04-23T22:28:03.836Z,9.01
2023-04-23T22:30:15.368Z,9
2023-04-23T22:32:27.478Z,8.92
2023-04-23T22:34:41.361Z,8.91
2023-04-23T22:36:53.713Z,8.93
2023-04-23T22:39:04.973Z,8.85
2023-04-23T22:41:16.435Z,8.9
2023-04-23T22:43:27.434Z,8.84
2023-04-23T22:45:56.221Z,8.78
2023-04-23T22:48:12.334Z,8.71
2023-04-23T22:50:25.050Z,8.72
2023-04-23T22:52:38.092Z,8.71
2023-04-23T22:54:52.473Z,8.7
2023-04-23T22:57:04.115Z,8.66
2023-04-23T22:59:15.858Z,8.65
2023-04-23T23:01:29.125Z,8.68
2023-04-23T23:03:41.389Z,8.65
2023-04-23T23:05:57.552Z,8.64
2023-04-23T23:08:09.656Z,8.69
2023-04-23T23:10:22.826Z,8.67
2023-04-23T23:12:33.197Z,8.63
2023-04-23T23:14:47.995Z,8.57
2023-04-23T23:17:00.392Z,8.49
2023-04-23T23:19:18.012Z,8.47
2023-04-23T23:21:27.107Z,8.35
2023-04-23T23:23:37.942Z,8.22
2023-04-23T23:25:48.468Z,8.16
2023-04-23T23:28:00.418Z,8.1
2023-04-23T23:30:11.599Z,8.22
2023-04-23T23:32:26.912Z,8.29
2023-04-23T23:34:39.934Z,8.23
2023-04-23T23:36:52.498Z,8.13
2023-04-23T23:39:04.664Z,8.03
2023-04-23T23:41:16.970Z,7.93
2023-04-23T23:43:27.650Z,7.86
2023-04-23T23:45:38.336Z,7.78
2023-04-23T23:47:50.642Z,7.69
2023-04-23T23:50:03.562Z,7.57
2023-04-23T23:52:17.338Z,7.66
2023-04-23T23:54:28.680Z,7.84
2023-04-23T23:56:40.318Z,7.81
2023-04-23T23:58:52.097Z,7.97
